sensor_id;sensor_type;location;lat;lon;timestamp;temperature;humidity
38398;DHT22;24179;52.094;4.408;2023-04-07T01:04:19;6.60;99.90
38398;DHT22;24179;52.094;4.408;2023-04-07T01:07:23;6.50;99.90
38398;DHT22;24179;52.094;4.408;2023-04-07T01:10:26;6.60;99.90
38398;DHT22;24179;52.094;4.408;2023-04-07T01:13:35;6.70;99.90
38398;DHT22;24179;52.094;4.408;2023-04-07T01:16:47;6.70;99.90
38398;DHT22;24179;52.094;4.408;2023-04-07T01:20:09;6.90;99.90
38398;DHT22;24179;52.094;4.408;2023-04-07T01:23:09;6.90;99.90
38398;DHT22;24179;52.094;4.408;2023-04-07T01:29:26;7.00;99.90
38398;DHT22;24179;52.094;4.408;2023-04-07T01:32:27;6.90;99.90
38398;DHT22;24179;52.094;4.408;2023-04-07T01:35:29;6.90;99.90
38398;DHT22;24179;52.094;4.408;2023-04-07T01:38:34;6.90;99.90
38398;DHT22;24179;52.094;4.408;2023-04-07T01:41:35;6.90;99.90
38398;DHT22;24179;52.094;4.408;2023-04-07T01:44:36;6.90;99.90
38398;DHT22;24179;52.094;4.408;2023-04-07T01:47:37;6.90;99.90
38398;DHT22;24179;52.094;4.408;2023-04-07T01:50:38;7.00;99.90
38398;DHT22;24179;52.094;4.408;2023-04-07T01:53:39;7.10;99.90
38398;DHT22;24179;52.094;4.408;2023-04-07T01:56:42;7.10;99.90
38398;DHT22;24179;52.094;4.408;2023-04-07T01:59:44;7.20;99.90
38398;DHT22;24179;52.094;4.408;2023-04-07T02:02:45;7.10;99.90
38398;DHT22;24179;52.094;4.408;2023-04-07T02:05:48;7.00;99.90
38398;DHT22;24179;52.094;4.408;2023-04-07T02:08:52;7.00;99.90
38398;DHT22;24179;52.094;4.408;2023-04-07T02:11:54;7.00;99.90
38398;DHT22;24179;52.094;4.408;2023-04-07T02:14:57;7.00;99.90
38398;DHT22;24179;52.094;4.408;2023-04-07T02:17:58;7.00;99.90
38398;DHT22;24179;52.094;4.408;2023-04-07T02:20:59;7.10;99.90
38398;DHT22;24179;52.094;4.408;2023-04-07T02:24:01;7.10;99.90
38398;DHT22;24179;52.094;4.408;2023-04-07T02:27:02;7.20;99.90
38398;DHT22;24179;52.094;4.408;2023-04-07T02:30:02;7.20;99.90
38398;DHT22;24179;52.094;4.408;2023-04-07T02:33:03;7.30;99.90
38398;DHT22;24179;52.094;4.408;2023-04-07T02:36:03;7.40;99.90
38398;DHT22;24179;52.094;4.408;2023-04-07T02:39:04;7.50;99.90
38398;DHT22;24179;52.094;4.408;2023-04-07T02:42:04;7.60;99.90
38398;DHT22;24179;52.094;4.408;2023-04-07T02:45:05;7.60;99.90
38398;DHT22;24179;52.094;4.408;2023-04-07T02:48:06;7.70;99.90
38398;DHT22;24179;52.094;4.408;2023-04-07T02:51:06;7.70;99.90
38398;DHT22;24179;52.094;4.408;2023-04-07T02:54:07;7.90;99.90
38398;DHT22;24179;52.094;4.408;2023-04-07T02:57:07;7.90;99.90
38398;DHT22;24179;52.094;4.408;2023-04-07T03:00:08;8.00;99.90
38398;DHT22;24179;52.094;4.408;2023-04-07T03:03:09;8.00;99.90
38398;DHT22;24179;52.094;4.408;2023-04-07T03:06:10;8.00;99.90
38398;DHT22;24179;52.094;4.408;2023-04-07T03:09:10;8.00;99.90
38398;DHT22;24179;52.094;4.408;2023-04-07T03:12:11;8.10;99.90
38398;DHT22;24179;52.094;4.408;2023-04-07T03:15:11;8.20;99.90
38398;DHT22;24179;52.094;4.408;2023-04-07T03:18:12;8.20;99.90
38398;DHT22;24179;52.094;4.408;2023-04-07T03:21:12;8.10;99.90
38398;DHT22;24179;52.094;4.408;2023-04-07T03:24:13;8.30;99.90
38398;DHT22;24179;52.094;4.408;2023-04-07T03:27:13;8.20;99.90
38398;DHT22;24179;52.094;4.408;2023-04-07T03:30:14;8.10;99.90
38398;DHT22;24179;52.094;4.408;2023-04-07T03:33:14;8.20;99.90
38398;DHT22;24179;52.094;4.408;2023-04-07T03:36:15;8.10;99.90
38398;DHT22;24179;52.094;4.408;2023-04-07T03:39:17;8.10;99.90
38398;DHT22;24179;52.094;4.408;2023-04-07T03:42:20;8.10;99.90
38398;DHT22;24179;52.094;4.408;2023-04-07T03:45:20;8.10;99.90
38398;DHT22;24179;52.094;4.408;2023-04-07T03:48:21;8.20;99.90
38398;DHT22;24179;52.094;4.408;2023-04-07T03:51:21;8.10;99.90
38398;DHT22;24179;52.094;4.408;2023-04-07T03:54:22;8.20;99.90
38398;DHT22;24179;52.094;4.408;2023-04-07T03:57:22;8.10;99.90
38398;DHT22;24179;52.094;4.408;2023-04-07T04:00:23;8.10;99.90
38398;DHT22;24179;52.094;4.408;2023-04-07T04:03:23;8.20;99.90
38398;DHT22;24179;52.094;4.408;2023-04-07T04:06:24;8.20;99.90
38398;DHT22;24179;52.094;4.408;2023-04-07T04:09:26;8.20;99.90
38398;DHT22;24179;52.094;4.408;2023-04-07T04:12:26;8.20;99.90
38398;DHT22;24179;52.094;4.408;2023-04-07T04:15:27;8.20;99.90
38398;DHT22;24179;52.094;4.408;2023-04-07T04:18:28;8.20;99.90
38398;DHT22;24179;52.094;4.408;2023-04-07T04:21:28;8.20;99.90
38398;DHT22;24179;52.094;4.408;2023-04-07T04:24:29;8.20;99.90
38398;DHT22;24179;52.094;4.408;2023-04-07T04:27:29;8.30;99.90
38398;DHT22;24179;52.094;4.408;2023-04-07T04:30:30;8.20;99.90
38398;DHT22;24179;52.094;4.408;2023-04-07T04:33:34;8.30;99.90
38398;DHT22;24179;52.094;4.408;2023-04-07T04:36:35;8.30;99.90
38398;DHT22;24179;52.094;4.408;2023-04-07T04:39:35;8.30;99.90
38398;DHT22;24179;52.094;4.408;2023-04-07T04:42:36;8.30;99.90
38398;DHT22;24179;52.094;4.408;2023-04-07T04:45:36;8.30;99.90
38398;DHT22;24179;52.094;4.408;2023-04-07T04:48:37;8.20;99.90
38398;DHT22;24179;52.094;4.408;2023-04-07T04:51:37;8.30;99.90
38398;DHT22;24179;52.094;4.408;2023-04-07T04:54:38;8.30;99.90
38398;DHT22;24179;52.094;4.408;2023-04-07T04:57:38;8.20;99.90
38398;DHT22;24179;52.094;4.408;2023-04-07T05:00:39;8.30;99.90
38398;DHT22;24179;52.094;4.408;2023-04-07T05:03:40;8.20;99.90
38398;DHT22;24179;52.094;4.408;2023-04-07T05:06:40;8.40;99.90
38398;DHT22;24179;52.094;4.408;2023-04-07T05:09:41;8.30;99.90
38398;DHT22;24179;52.094;4.408;2023-04-07T05:12:41;8.30;99.90
38398;DHT22;24179;52.094;4.408;2023-04-07T05:15:42;8.30;99.90
38398;DHT22;24179;52.094;4.408;2023-04-07T05:18:42;8.30;99.90
38398;DHT22;24179;52.094;4.408;2023-04-07T05:21:43;8.30;99.90
38398;DHT22;24179;52.094;4.408;2023-04-07T05:24:43;8.30;99.90
38398;DHT22;24179;52.094;4.408;2023-04-07T05:27:44;8.30;99.90
38398;DHT22;24179;52.094;4.408;2023-04-07T05:30:44;8.30;99.90
38398;DHT22;24179;52.094;4.408;2023-04-07T05:33:45;8.30;99.90
38398;DHT22;24179;52.094;4.408;2023-04-07T05:36:48;8.30;99.90
38398;DHT22;24179;52.094;4.408;2023-04-07T05:39:49;8.30;99.90
38398;DHT22;24179;52.094;4.408;2023-04-07T05:42:50;8.40;99.90
38398;DHT22;24179;52.094;4.408;2023-04-07T05:45:50;8.40;99.90
38398;DHT22;24179;52.094;4.408;2023-04-07T05:48:51;8.40;99.90
38398;DHT22;24179;52.094;4.408;2023-04-07T05:51:51;8.50;99.90
38398;DHT22;24179;52.094;4.408;2023-04-07T05:54:55;8.60;99.90
38398;DHT22;24179;52.094;4.408;2023-04-07T05:57:55;8.60;99.90
38398;DHT22;24179;52.094;4.408;2023-04-07T06:00:56;8.60;99.90
38398;DHT22;24179;52.094;4.408;2023-04-07T06:03:56;8.60;99.90
38398;DHT22;24179;52.094;4.408;2023-04-07T06:06:58;8.70;99.90
38398;DHT22;24179;52.094;4.408;2023-04-07T06:09:58;8.70;99.90
38398;DHT22;24179;52.094;4.408;2023-04-07T06:12:59;8.70;99.90
38398;DHT22;24179;52.094;4.408;2023-04-07T06:16:00;8.80;99.90
38398;DHT22;24179;52.094;4.408;2023-04-07T06:19:01;8.80;99.90
38398;DHT22;24179;52.094;4.408;2023-04-07T06:22:01;8.80;99.90
38398;DHT22;24179;52.094;4.408;2023-04-07T06:25:03;8.70;99.90
38398;DHT22;24179;52.094;4.408;2023-04-07T06:28:07;8.70;99.90
38398;DHT22;24179;52.094;4.408;2023-04-07T06:31:08;8.70;99.90
38398;DHT22;24179;52.094;4.408;2023-04-07T06:34:08;8.70;99.90
38398;DHT22;24179;52.094;4.408;2023-04-07T06:37:10;8.80;99.90
38398;DHT22;24179;52.094;4.408;2023-04-07T06:40:11;8.80;99.90
38398;DHT22;24179;52.094;4.408;2023-04-07T06:43:11;8.80;99.90
38398;DHT22;24179;52.094;4.408;2023-04-07T06:46:12;8.70;99.90
38398;DHT22;24179;52.094;4.408;2023-04-07T06:49:12;8.70;99.90
38398;DHT22;24179;52.094;4.408;2023-04-07T06:55:23;8.70;99.90
38398;DHT22;24179;52.094;4.408;2023-04-07T06:58:24;8.80;99.90
38398;DHT22;24179;52.094;4.408;2023-04-07T07:01:27;8.70;99.90
38398;DHT22;24179;52.094;4.408;2023-04-07T07:04:27;8.90;99.90
38398;DHT22;24179;52.094;4.408;2023-04-07T07:07:31;8.90;99.90
38398;DHT22;24179;52.094;4.408;2023-04-07T07:10:31;8.90;99.90
38398;DHT22;24179;52.094;4.408;2023-04-07T07:13:32;8.90;99.90
38398;DHT22;24179;52.094;4.408;2023-04-07T07:16:32;8.90;99.90
38398;DHT22;24179;52.094;4.408;2023-04-07T07:19:33;8.90;99.90
38398;DHT22;24179;52.094;4.408;2023-04-07T07:22:33;8.80;99.90
38398;DHT22;24179;52.094;4.408;2023-04-07T07:25:40;8.90;99.90
38398;DHT22;24179;52.094;4.408;2023-04-07T07:28:40;9.00;99.90
38398;DHT22;24179;52.094;4.408;2023-04-07T07:31:47;8.90;99.90
38398;DHT22;24179;52.094;4.408;2023-04-07T07:34:48;9.00;99.90
38398;DHT22;24179;52.094;4.408;2023-04-07T07:37:54;9.00;99.90
38398;DHT22;24179;52.094;4.408;2023-04-07T07:40:55;9.20;99.90
38398;DHT22;24179;52.094;4.408;2023-04-07T07:44:00;9.30;99.90
38398;DHT22;24179;52.094;4.408;2023-04-07T07:47:04;9.30;99.90
38398;DHT22;24179;52.094;4.408;2023-04-07T07:50:05;9.50;99.90
38398;DHT22;24179;52.094;4.408;2023-04-07T07:53:06;9.50;99.90
38398;DHT22;24179;52.094;4.408;2023-04-07T07:56:07;9.40;99.90
38398;DHT22;24179;52.094;4.408;2023-04-07T07:59:07;9.30;99.90
38398;DHT22;24179;52.094;4.408;2023-04-07T08:02:09;9.60;99.90
38398;DHT22;24179;52.094;4.408;2023-04-07T08:05:10;9.50;99.90
38398;DHT22;24179;52.094;4.408;2023-04-07T08:08:10;9.60;99.90
38398;DHT22;24179;52.094;4.408;2023-04-07T08:11:11;9.70;99.90
38398;DHT22;24179;52.094;4.408;2023-04-07T08:14:12;9.70;99.90
38398;DHT22;24179;52.094;4.408;2023-04-07T08:17:12;9.80;99.90
38398;DHT22;24179;52.094;4.408;2023-04-07T08:20:13;9.80;99.90
38398;DHT22;24179;52.094;4.408;2023-04-07T08:23:13;10.00;99.90
38398;DHT22;24179;52.094;4.408;2023-04-07T08:26:15;9.90;99.90
38398;DHT22;24179;52.094;4.408;2023-04-07T08:29:16;10.20;99.90
38398;DHT22;24179;52.094;4.408;2023-04-07T08:32:16;10.10;99.90
38398;DHT22;24179;52.094;4.408;2023-04-07T08:35:18;10.20;99.90
38398;DHT22;24179;52.094;4.408;2023-04-07T08:38:22;10.00;99.90
38398;DHT22;24179;52.094;4.408;2023-04-07T08:41:43;10.10;99.90
38398;DHT22;24179;52.094;4.408;2023-04-07T08:44:44;9.80;99.90
38398;DHT22;24179;52.094;4.408;2023-04-07T08:47:49;9.80;99.90
38398;DHT22;24179;52.094;4.408;2023-04-07T08:50:52;9.70;99.90
38398;DHT22;24179;52.094;4.408;2023-04-07T08:53:53;10.00;99.90
38398;DHT22;24179;52.094;4.408;2023-04-07T08:56:57;10.10;99.90
38398;DHT22;24179;52.094;4.408;2023-04-07T09:00:01;10.30;99.90
38398;DHT22;24179;52.094;4.408;2023-04-07T09:03:08;10.60;99.90
38398;DHT22;24179;52.094;4.408;2023-04-07T09:06:09;10.60;99.90
38398;DHT22;24179;52.094;4.408;2023-04-07T09:09:10;10.60;99.90
38398;DHT22;24179;52.094;4.408;2023-04-07T09:12:11;10.70;99.90
38398;DHT22;24179;52.094;4.408;2023-04-07T09:15:12;10.70;99.90
38398;DHT22;24179;52.094;4.408;2023-04-07T09:18:12;10.60;99.90
38398;DHT22;24179;52.094;4.408;2023-04-07T09:21:14;10.80;99.90
38398;DHT22;24179;52.094;4.408;2023-04-07T09:24:22;10.70;99.90
38398;DHT22;24179;52.094;4.408;2023-04-07T09:27:23;10.60;99.90
38398;DHT22;24179;52.094;4.408;2023-04-07T09:30:24;10.60;99.90
38398;DHT22;24179;52.094;4.408;2023-04-07T09:33:28;10.70;99.90
38398;DHT22;24179;52.094;4.408;2023-04-07T09:36:29;10.70;99.90
38398;DHT22;24179;52.094;4.408;2023-04-07T09:39:47;10.70;99.90
38398;DHT22;24179;52.094;4.408;2023-04-07T09:42:48;10.90;99.90
38398;DHT22;24179;52.094;4.408;2023-04-07T09:45:51;11.10;99.90
38398;DHT22;24179;52.094;4.408;2023-04-07T09:49:00;11.20;99.90
38398;DHT22;24179;52.094;4.408;2023-04-07T09:52:02;10.90;99.90
38398;DHT22;24179;52.094;4.408;2023-04-07T09:55:08;10.60;99.90
38398;DHT22;24179;52.094;4.408;2023-04-07T09:58:10;10.70;99.90
38398;DHT22;24179;52.094;4.408;2023-04-07T10:01:11;10.80;99.90
38398;DHT22;24179;52.094;4.408;2023-04-07T10:04:12;10.90;99.90
38398;DHT22;24179;52.094;4.408;2023-04-07T10:07:13;11.20;99.90
38398;DHT22;24179;52.094;4.408;2023-04-07T10:10:14;11.10;99.90
38398;DHT22;24179;52.094;4.408;2023-04-07T10:13:15;11.00;99.90
38398;DHT22;24179;52.094;4.408;2023-04-07T10:16:16;11.00;99.90
38398;DHT22;24179;52.094;4.408;2023-04-07T10:19:16;10.70;99.90
38398;DHT22;24179;52.094;4.408;2023-04-07T10:22:18;10.60;99.90
38398;DHT22;24179;52.094;4.408;2023-04-07T10:25:22;10.50;99.90
38398;DHT22;24179;52.094;4.408;2023-04-07T10:28:24;10.20;99.90
38398;DHT22;24179;52.094;4.408;2023-04-07T10:31:28;10.40;99.90
38398;DHT22;24179;52.094;4.408;2023-04-07T10:48:08;11.10;99.90
38398;DHT22;24179;52.094;4.408;2023-04-07T10:51:10;11.20;99.90
38398;DHT22;24179;52.094;4.408;2023-04-07T10:54:14;11.20;99.90
38398;DHT22;24179;52.094;4.408;2023-04-07T10:57:14;11.40;99.90
38398;DHT22;24179;52.094;4.408;2023-04-07T11:00:15;11.60;99.90
38398;DHT22;24179;52.094;4.408;2023-04-07T11:03:16;11.50;99.90
38398;DHT22;24179;52.094;4.408;2023-04-07T11:06:16;11.60;99.90
38398;DHT22;24179;52.094;4.408;2023-04-07T11:09:17;11.60;99.90
38398;DHT22;24179;52.094;4.408;2023-04-07T11:12:21;11.80;99.90
38398;DHT22;24179;52.094;4.408;2023-04-07T11:15:22;11.80;99.90
38398;DHT22;24179;52.094;4.408;2023-04-07T11:18:23;11.60;99.90
38398;DHT22;24179;52.094;4.408;2023-04-07T11:21:23;11.30;99.90
38398;DHT22;24179;52.094;4.408;2023-04-07T11:24:57;11.60;99.90
38398;DHT22;24179;52.094;4.408;2023-04-07T11:27:50;11.80;99.90
38398;DHT22;24179;52.094;4.408;2023-04-07T11:30:52;12.10;99.90
38398;DHT22;24179;52.094;4.408;2023-04-07T11:33:53;12.20;99.90
38398;DHT22;24179;52.094;4.408;2023-04-07T11:36:54;12.30;99.90
38398;DHT22;24179;52.094;4.408;2023-04-07T11:39:58;12.50;99.90
38398;DHT22;24179;52.094;4.408;2023-04-07T11:42:59;12.40;99.90
38398;DHT22;24179;52.094;4.408;2023-04-07T11:46:10;12.10;99.90
38398;DHT22;24179;52.094;4.408;2023-04-07T11:49:12;12.00;99.90
38398;DHT22;24179;52.094;4.408;2023-04-07T11:52:12;12.00;99.90
38398;DHT22;24179;52.094;4.408;2023-04-07T11:55:22;12.10;99.90
38398;DHT22;24179;52.094;4.408;2023-04-07T11:58:23;12.00;99.90
38398;DHT22;24179;52.094;4.408;2023-04-07T12:01:24;11.80;99.90
38398;DHT22;24179;52.094;4.408;2023-04-07T12:04:38;11.60;99.90
38398;DHT22;24179;52.094;4.408;2023-04-07T12:07:54;11.80;99.90
38398;DHT22;24179;52.094;4.408;2023-04-07T12:11:02;11.90;99.90
38398;DHT22;24179;52.094;4.408;2023-04-07T12:14:03;12.10;99.90
38398;DHT22;24179;52.094;4.408;2023-04-07T12:17:04;11.90;99.90
38398;DHT22;24179;52.094;4.408;2023-04-07T12:20:06;11.80;99.90
38398;DHT22;24179;52.094;4.408;2023-04-07T12:23:07;11.80;99.90
38398;DHT22;24179;52.094;4.408;2023-04-07T12:26:07;11.80;99.90
38398;DHT22;24179;52.094;4.408;2023-04-07T12:29:10;11.90;99.90
38398;DHT22;24179;52.094;4.408;2023-04-07T12:32:10;11.90;99.90
38398;DHT22;24179;52.094;4.408;2023-04-07T12:35:11;12.10;99.90
38398;DHT22;24179;52.094;4.408;2023-04-07T12:38:11;12.00;99.90
38398;DHT22;24179;52.094;4.408;2023-04-07T12:41:12;12.20;99.90
38398;DHT22;24179;52.094;4.408;2023-04-07T12:44:13;12.50;99.90
38398;DHT22;24179;52.094;4.408;2023-04-07T12:47:13;12.40;99.90
38398;DHT22;24179;52.094;4.408;2023-04-07T12:50:14;12.00;99.90
38398;DHT22;24179;52.094;4.408;2023-04-07T12:53:15;12.00;99.90
38398;DHT22;24179;52.094;4.408;2023-04-07T12:56:15;12.00;99.90
38398;DHT22;24179;52.094;4.408;2023-04-07T12:59:16;11.90;99.90
38398;DHT22;24179;52.094;4.408;2023-04-07T13:02:17;11.90;99.90
38398;DHT22;24179;52.094;4.408;2023-04-07T13:05:18;11.90;99.90
38398;DHT22;24179;52.094;4.408;2023-04-07T13:08:18;11.80;99.90
38398;DHT22;24179;52.094;4.408;2023-04-07T13:11:20;11.80;99.90
38398;DHT22;24179;52.094;4.408;2023-04-07T13:14:21;11.90;99.90
38398;DHT22;24179;52.094;4.408;2023-04-07T13:17:21;11.60;99.90
38398;DHT22;24179;52.094;4.408;2023-04-07T13:20:22;11.50;99.90
38398;DHT22;24179;52.094;4.408;2023-04-07T13:23:22;11.70;99.90
38398;DHT22;24179;52.094;4.408;2023-04-07T13:26:23;11.60;99.90
38398;DHT22;24179;52.094;4.408;2023-04-07T13:29:23;11.60;99.90
38398;DHT22;24179;52.094;4.408;2023-04-07T13:32:24;11.70;99.90
38398;DHT22;24179;52.094;4.408;2023-04-07T13:35:24;11.70;99.90
38398;DHT22;24179;52.094;4.408;2023-04-07T13:38:25;11.80;99.90
38398;DHT22;24179;52.094;4.408;2023-04-07T13:41:25;11.60;99.90
38398;DHT22;24179;52.094;4.408;2023-04-07T13:44:27;11.60;99.90
38398;DHT22;24179;52.094;4.408;2023-04-07T13:47:29;11.70;99.90
38398;DHT22;24179;52.094;4.408;2023-04-07T13:50:34;11.50;99.90
38398;DHT22;24179;52.094;4.408;2023-04-07T13:53:35;11.30;99.90
38398;DHT22;24179;52.094;4.408;2023-04-07T13:56:36;11.30;99.90
38398;DHT22;24179;52.094;4.408;2023-04-07T13:59:37;11.20;99.90
38398;DHT22;24179;52.094;4.408;2023-04-07T14:02:38;11.10;99.90
38398;DHT22;24179;52.094;4.408;2023-04-07T14:05:39;11.20;99.90
38398;DHT22;24179;52.094;4.408;2023-04-07T14:08:39;11.10;99.90
38398;DHT22;24179;52.094;4.408;2023-04-07T14:11:40;11.00;99.90
38398;DHT22;24179;52.094;4.408;2023-04-07T14:14:40;10.90;99.90
38398;DHT22;24179;52.094;4.408;2023-04-07T14:17:41;10.90;99.90
38398;DHT22;24179;52.094;4.408;2023-04-07T14:20:41;11.00;99.90
38398;DHT22;24179;52.094;4.408;2023-04-07T14:23:42;11.00;99.90
38398;DHT22;24179;52.094;4.408;2023-04-07T14:26:43;11.00;99.90
38398;DHT22;24179;52.094;4.408;2023-04-07T14:29:43;11.20;99.90
38398;DHT22;24179;52.094;4.408;2023-04-07T14:32:44;11.40;99.90
38398;DHT22;24179;52.094;4.408;2023-04-07T14:35:45;11.70;99.90
38398;DHT22;24179;52.094;4.408;2023-04-07T14:38:46;12.10;99.90
38398;DHT22;24179;52.094;4.408;2023-04-07T14:41:47;12.10;99.90
38398;DHT22;24179;52.094;4.408;2023-04-07T14:44:48;11.90;99.90
38398;DHT22;24179;52.094;4.408;2023-04-07T14:47:48;11.90;99.90
38398;DHT22;24179;52.094;4.408;2023-04-07T14:50:49;12.10;99.90
38398;DHT22;24179;52.094;4.408;2023-04-07T14:53:49;12.10;99.90
38398;DHT22;24179;52.094;4.408;2023-04-07T14:56:54;12.10;99.90
38398;DHT22;24179;52.094;4.408;2023-04-07T14:59:55;12.00;99.90
38398;DHT22;24179;52.094;4.408;2023-04-07T15:02:55;11.90;99.90
38398;DHT22;24179;52.094;4.408;2023-04-07T15:05:56;11.60;99.90
38398;DHT22;24179;52.094;4.408;2023-04-07T15:08:57;11.50;99.90
38398;DHT22;24179;52.094;4.408;2023-04-07T15:11:57;11.40;99.90
38398;DHT22;24179;52.094;4.408;2023-04-07T15:14:59;11.20;99.90
38398;DHT22;24179;52.094;4.408;2023-04-07T15:18:00;11.10;99.90
38398;DHT22;24179;52.094;4.408;2023-04-07T15:21:00;11.10;99.90
38398;DHT22;24179;52.094;4.408;2023-04-07T15:24:01;11.10;99.90
38398;DHT22;24179;52.094;4.408;2023-04-07T15:27:01;11.00;99.90
38398;DHT22;24179;52.094;4.408;2023-04-07T15:30:02;10.80;99.90
38398;DHT22;24179;52.094;4.408;2023-04-07T15:33:02;10.70;99.90
38398;DHT22;24179;52.094;4.408;2023-04-07T15:36:04;10.90;99.90
38398;DHT22;24179;52.094;4.408;2023-04-07T15:39:04;10.90;99.90
38398;DHT22;24179;52.094;4.408;2023-04-07T15:42:06;11.00;99.90
38398;DHT22;24179;52.094;4.408;2023-04-07T15:45:11;10.90;99.90
38398;DHT22;24179;52.094;4.408;2023-04-07T15:48:12;10.70;99.90
38398;DHT22;24179;52.094;4.408;2023-04-07T15:51:13;10.70;99.90
38398;DHT22;24179;52.094;4.408;2023-04-07T15:54:13;10.80;99.90
38398;DHT22;24179;52.094;4.408;2023-04-07T15:57:14;10.70;99.90
38398;DHT22;24179;52.094;4.408;2023-04-07T16:00:16;10.60;99.90
38398;DHT22;24179;52.094;4.408;2023-04-07T16:03:17;10.50;99.90
38398;DHT22;24179;52.094;4.408;2023-04-07T16:06:17;10.50;99.90
38398;DHT22;24179;52.094;4.408;2023-04-07T16:09:18;10.50;99.90
38398;DHT22;24179;52.094;4.408;2023-04-07T16:12:21;10.30;99.90
38398;DHT22;24179;52.094;4.408;2023-04-07T16:15:22;10.30;99.90
38398;DHT22;24179;52.094;4.408;2023-04-07T16:18:23;10.40;99.90
38398;DHT22;24179;52.094;4.408;2023-04-07T16:21:23;10.50;99.90
38398;DHT22;24179;52.094;4.408;2023-04-07T16:24:24;10.60;99.90
38398;DHT22;24179;52.094;4.408;2023-04-07T16:27:24;10.50;99.90
38398;DHT22;24179;52.094;4.408;2023-04-07T16:30:25;10.60;99.90
38398;DHT22;24179;52.094;4.408;2023-04-07T16:33:28;10.60;99.90
38398;DHT22;24179;52.094;4.408;2023-04-07T16:36:29;10.40;99.90
38398;DHT22;24179;52.094;4.408;2023-04-07T16:39:29;10.30;99.90
38398;DHT22;24179;52.094;4.408;2023-04-07T16:42:30;10.20;99.90
38398;DHT22;24179;52.094;4.408;2023-04-07T16:45:31;10.10;99.90
38398;DHT22;24179;52.094;4.408;2023-04-07T16:48:31;10.10;99.90
38398;DHT22;24179;52.094;4.408;2023-04-07T16:51:31;10.20;99.90
38398;DHT22;24179;52.094;4.408;2023-04-07T16:54:35;10.10;99.90
38398;DHT22;24179;52.094;4.408;2023-04-07T16:57:36;10.10;99.90
38398;DHT22;24179;52.094;4.408;2023-04-07T17:00:36;10.10;99.90
38398;DHT22;24179;52.094;4.408;2023-04-07T17:03:37;10.10;99.90
38398;DHT22;24179;52.094;4.408;2023-04-07T17:06:37;10.10;99.90
38398;DHT22;24179;52.094;4.408;2023-04-07T17:09:38;10.00;99.90
38398;DHT22;24179;52.094;4.408;2023-04-07T17:12:38;10.00;99.90
38398;DHT22;24179;52.094;4.408;2023-04-07T17:15:39;9.80;99.90
38398;DHT22;24179;52.094;4.408;2023-04-07T17:18:39;9.80;99.90
38398;DHT22;24179;52.094;4.408;2023-04-07T17:21:40;9.70;99.90
38398;DHT22;24179;52.094;4.408;2023-04-07T17:24:41;9.70;99.90
38398;DHT22;24179;52.094;4.408;2023-04-07T17:27:41;9.70;99.90
38398;DHT22;24179;52.094;4.408;2023-04-07T17:30:47;9.60;99.90
38398;DHT22;24179;52.094;4.408;2023-04-07T17:33:47;9.70;99.90
38398;DHT22;24179;52.094;4.408;2023-04-07T17:36:48;9.50;99.90
38398;DHT22;24179;52.094;4.408;2023-04-07T17:39:48;9.40;99.90
38398;DHT22;24179;52.094;4.408;2023-04-07T17:42:49;9.40;99.90
38398;DHT22;24179;52.094;4.408;2023-04-07T17:45:49;9.40;99.90
38398;DHT22;24179;52.094;4.408;2023-04-07T17:48:50;9.40;99.90
38398;DHT22;24179;52.094;4.408;2023-04-07T17:51:50;9.40;99.90
38398;DHT22;24179;52.094;4.408;2023-04-07T17:54:51;9.40;99.90
38398;DHT22;24179;52.094;4.408;2023-04-07T17:57:52;9.40;99.90
38398;DHT22;24179;52.094;4.408;2023-04-07T18:00:52;9.40;99.90
38398;DHT22;24179;52.094;4.408;2023-04-07T18:03:52;9.40;99.90
38398;DHT22;24179;52.094;4.408;2023-04-07T18:06:53;9.40;99.90
38398;DHT22;24179;52.094;4.408;2023-04-07T18:09:54;9.40;99.90
38398;DHT22;24179;52.094;4.408;2023-04-07T18:12:55;9.40;99.90
38398;DHT22;24179;52.094;4.408;2023-04-07T18:15:55;9.40;99.90
38398;DHT22;24179;52.094;4.408;2023-04-07T18:18:56;9.30;99.90
38398;DHT22;24179;52.094;4.408;2023-04-07T18:21:57;9.30;99.90
38398;DHT22;24179;52.094;4.408;2023-04-07T18:24:59;9.20;99.90
38398;DHT22;24179;52.094;4.408;2023-04-07T18:28:00;9.20;99.90
38398;DHT22;24179;52.094;4.408;2023-04-07T18:31:05;9.20;99.90
38398;DHT22;24179;52.094;4.408;2023-04-07T18:34:06;9.20;99.90
38398;DHT22;24179;52.094;4.408;2023-04-07T18:37:07;9.20;99.90
38398;DHT22;24179;52.094;4.408;2023-04-07T18:40:08;9.20;99.90
38398;DHT22;24179;52.094;4.408;2023-04-07T18:43:08;9.20;99.90
38398;DHT22;24179;52.094;4.408;2023-04-07T18:46:09;9.10;99.90
38398;DHT22;24179;52.094;4.408;2023-04-07T18:49:09;9.10;99.90
38398;DHT22;24179;52.094;4.408;2023-04-07T18:52:10;9.20;99.90
38398;DHT22;24179;52.094;4.408;2023-04-07T18:55:10;9.10;99.90
38398;DHT22;24179;52.094;4.408;2023-04-07T18:58:11;9.10;99.90
38398;DHT22;24179;52.094;4.408;2023-04-07T19:01:11;9.10;99.90
38398;DHT22;24179;52.094;4.408;2023-04-07T19:04:12;9.20;99.90
38398;DHT22;24179;52.094;4.408;2023-04-07T19:07:14;9.10;99.90
38398;DHT22;24179;52.094;4.408;2023-04-07T19:10:14;9.10;99.90
38398;DHT22;24179;52.094;4.408;2023-04-07T19:13:15;9.00;99.90
38398;DHT22;24179;52.094;4.408;2023-04-07T19:16:17;9.10;99.90
38398;DHT22;24179;52.094;4.408;2023-04-07T19:19:20;9.00;99.90
38398;DHT22;24179;52.094;4.408;2023-04-07T19:22:20;9.10;99.90
38398;DHT22;24179;52.094;4.408;2023-04-07T19:25:21;9.10;99.90
38398;DHT22;24179;52.094;4.408;2023-04-07T19:28:22;9.00;99.90
38398;DHT22;24179;52.094;4.408;2023-04-07T19:31:23;9.00;99.90
38398;DHT22;24179;52.094;4.408;2023-04-07T19:34:23;9.00;99.90
38398;DHT22;24179;52.094;4.408;2023-04-07T19:37:23;9.00;99.90
38398;DHT22;24179;52.094;4.408;2023-04-07T19:40:24;9.00;99.90
38398;DHT22;24179;52.094;4.408;2023-04-07T19:43:25;9.00;99.90
38398;DHT22;24179;52.094;4.408;2023-04-07T19:46:25;9.00;99.90
38398;DHT22;24179;52.094;4.408;2023-04-07T19:49:26;9.00;99.90
38398;DHT22;24179;52.094;4.408;2023-04-07T19:52:32;9.00;99.90
38398;DHT22;24179;52.094;4.408;2023-04-07T19:55:32;9.00;99.90
38398;DHT22;24179;52.094;4.408;2023-04-07T19:58:33;9.00;99.90
38398;DHT22;24179;52.094;4.408;2023-04-07T20:01:33;9.00;99.90
38398;DHT22;24179;52.094;4.408;2023-04-07T20:04:34;9.00;99.90
38398;DHT22;24179;52.094;4.408;2023-04-07T20:07:35;9.10;99.90
38398;DHT22;24179;52.094;4.408;2023-04-07T20:10:35;9.00;99.90
38398;DHT22;24179;52.094;4.408;2023-04-07T20:13:36;9.00;99.90
38398;DHT22;24179;52.094;4.408;2023-04-07T20:16:36;9.00;99.90
38398;DHT22;24179;52.094;4.408;2023-04-07T20:19:37;9.00;99.90
38398;DHT22;24179;52.094;4.408;2023-04-07T20:22:37;9.00;99.90
38398;DHT22;24179;52.094;4.408;2023-04-07T20:25:38;9.00;99.90
38398;DHT22;24179;52.094;4.408;2023-04-07T20:28:38;9.10;99.90
38398;DHT22;24179;52.094;4.408;2023-04-07T20:31:39;9.10;99.90
38398;DHT22;24179;52.094;4.408;2023-04-07T20:34:41;9.10;99.90
38398;DHT22;24179;52.094;4.408;2023-04-07T20:37:41;9.00;99.90
38398;DHT22;24179;52.094;4.408;2023-04-07T20:40:43;9.10;99.90